createdAt,value
2024-01-08T00:01:14.546Z,103113.38
2024-01-08T00:03:44.493Z,103116.53
2024-01-08T00:06:12.545Z,103115.19
2024-01-08T00:08:40.893Z,103116.69
2024-01-08T00:11:08.968Z,103110.59
2024-01-08T00:13:36.974Z,103123.75
2024-01-08T00:16:05.430Z,103120.13
2024-01-08T00:18:33.931Z,103129.38
2024-01-08T00:21:04.275Z,103126.81
2024-01-08T00:23:34.676Z,103122.69
2024-01-08T00:26:02.993Z,103127.19
2024-01-08T00:28:31.096Z,103125.25
2024-01-08T00:30:59.248Z,103130.72
2024-01-08T00:33:27.627Z,103128.84
2024-01-08T00:35:55.780Z,103145.25
2024-01-08T00:38:25.236Z,103149.09
2024-01-08T00:40:53.581Z,103147.09
2024-01-08T00:43:21.762Z,103137.22
2024-01-08T00:45:49.899Z,103147.59
2024-01-08T00:48:17.930Z,103142.69
2024-01-08T00:50:46.177Z,103152.53
2024-01-08T00:53:14.244Z,103156.75
2024-01-08T00:55:43.658Z,103149.16
2024-01-08T00:58:11.769Z,103151.16
2024-01-08T01:00:39.771Z,103152.59
2024-01-08T01:03:07.776Z,103156.84
2024-01-08T01:05:36.060Z,103160.25
2024-01-08T01:08:04.374Z,103168.03
2024-01-08T01:10:32.458Z,103162.25
2024-01-08T01:13:02.081Z,103158.19
2024-01-08T01:15:30.072Z,103166.53
2024-01-08T01:17:58.157Z,103173.22
2024-01-08T01:20:26.914Z,103159.69
2024-01-08T01:22:55.052Z,103170.06
2024-01-08T01:25:23.056Z,103166.63
2024-01-08T01:27:51.057Z,103168.28
2024-01-08T01:30:20.515Z,103180.38
2024-01-08T01:32:48.651Z,103169.91
2024-01-08T01:35:17.334Z,103168.22
2024-01-08T01:37:45.427Z,103174.19
2024-01-08T01:40:13.912Z,103175.00
2024-01-08T01:42:42.253Z,103172.34
2024-01-08T01:45:10.669Z,103177.56
2024-01-08T01:47:40.312Z,103181.00
2024-01-08T01:50:10.240Z,103185.13
2024-01-08T01:52:38.379Z,103186.94
2024-01-08T01:55:07.361Z,103176.75
2024-01-08T01:57:35.983Z,103189.72
2024-01-08T02:00:04.231Z,103187.16
2024-01-08T02:02:43.233Z,103191.47
2024-01-08T02:05:12.578Z,103187.06
2024-01-08T02:07:41.608Z,103199.31
2024-01-08T02:10:10.811Z,103196.47
2024-01-08T02:12:39.145Z,103196.38
2024-01-08T02:15:07.640Z,103194.47
2024-01-08T02:17:35.860Z,103195.88
2024-01-08T02:20:06.241Z,103194.41
2024-01-08T02:22:41.160Z,103199.22
2024-01-08T02:25:10.146Z,103203.47
2024-01-08T02:27:38.069Z,103209.00
2024-01-08T02:30:07.472Z,103207.44
2024-01-08T02:32:35.805Z,103203.53
2024-01-08T02:35:04.017Z,103211.28
2024-01-08T02:37:32.199Z,103213.44
2024-01-08T02:40:02.054Z,103214.91
2024-01-08T02:42:30.195Z,103220.00
2024-01-08T02:44:58.158Z,103213.94
2024-01-08T02:47:26.678Z,103217.56
2024-01-08T02:49:54.726Z,103213.84
2024-01-08T02:52:22.712Z,103212.06
2024-01-08T02:54:50.756Z,103218.19
2024-01-08T02:57:20.090Z,103223.38
2024-01-08T02:59:48.081Z,103224.44
2024-01-08T03:02:16.079Z,103231.38
2024-01-08T03:04:44.119Z,103226.00
2024-01-08T03:07:13.075Z,103233.16
2024-01-08T03:09:42.313Z,103229.06
2024-01-08T03:12:10.370Z,103245.47
2024-01-08T03:14:39.717Z,103238.50
2024-01-08T03:17:07.819Z,103245.28
2024-01-08T03:19:35.815Z,103233.50
2024-01-08T03:22:04.257Z,103236.22
2024-01-08T03:24:32.237Z,103248.63
2024-01-08T03:27:00.394Z,103241.06
2024-01-08T03:29:28.546Z,103242.47
2024-01-08T03:31:57.966Z,103235.81
2024-01-08T03:34:26.208Z,103234.94
2024-01-08T03:36:54.518Z,103238.97
2024-01-08T03:39:22.552Z,103245.66
2024-01-08T03:41:50.670Z,103245.75
2024-01-08T03:44:18.698Z,103238.09
2024-01-08T03:46:48.801Z,103241.59
2024-01-08T03:49:18.921Z,103243.38
2024-01-08T03:51:48.146Z,103252.13
2024-01-08T03:54:16.557Z,103246.91
2024-01-08T03:56:45.486Z,103249.38
2024-01-08T03:59:14.232Z,103249.06
2024-01-08T04:01:46.319Z,103249.94
2024-01-08T04:04:14.593Z,103267.88
2024-01-08T04:06:44.491Z,103261.00
2024-01-08T04:09:13.480Z,103266.84
2024-01-08T04:11:42.039Z,103271.75
2024-01-08T04:14:10.178Z,103279.72
2024-01-08T04:16:39.085Z,103290.09
2024-01-08T04:19:07.332Z,103282.34
2024-01-08T04:21:35.518Z,103277.94
2024-01-08T04:24:05.175Z,103294.53
2024-01-08T04:26:33.295Z,103286.66
2024-01-08T04:29:01.432Z,103294.59
2024-01-08T04:31:29.998Z,103301.97
2024-01-08T04:33:58.119Z,103300.81
2024-01-08T04:36:26.345Z,103310.34
2024-01-08T04:38:54.655Z,103312.81
2024-01-08T04:41:24.236Z,103314.38
2024-01-08T04:43:52.326Z,103321.25
2024-01-08T04:46:20.500Z,103324.88
2024-01-08T04:48:48.740Z,103327.47
2024-01-08T04:51:24.125Z,103332.50
2024-01-08T04:53:52.371Z,103344.50
2024-01-08T04:56:21.947Z,103352.94
2024-01-08T04:58:51.563Z,103361.09
2024-01-08T05:01:19.974Z,103353.63
2024-01-08T05:03:47.370Z,103358.44
2024-01-08T05:06:16.296Z,103367.28
2024-01-08T05:08:44.380Z,103367.19
2024-01-08T05:11:13.989Z,103370.22
2024-01-08T05:13:42.945Z,103368.16
2024-01-08T05:16:12.382Z,103373.28
2024-01-08T05:18:40.495Z,103367.88
2024-01-08T05:21:09.328Z,103385.16
2024-01-08T05:23:37.981Z,103378.88
2024-01-08T05:26:06.346Z,103371.50
2024-01-08T05:28:34.547Z,103367.00
2024-01-08T05:31:02.781Z,103371.91
2024-01-08T05:33:32.444Z,103383.28
2024-01-08T05:36:00.685Z,103378.28
2024-01-08T05:38:29.135Z,103374.91
2024-01-08T05:41:55.493Z,103375.13
2024-01-08T05:44:23.734Z,103382.78
2024-01-08T05:46:52.162Z,103387.38
2024-01-08T05:49:21.711Z,103390.44
2024-01-08T05:51:49.826Z,103383.16
2024-01-08T05:54:17.872Z,103390.72
2024-01-08T05:56:45.884Z,103388.28
2024-01-08T05:59:14.153Z,103378.94
2024-01-08T06:01:43.830Z,103378.66
2024-01-08T06:04:12.453Z,103390.06
2024-01-08T06:06:42.137Z,103388.06
2024-01-08T06:09:10.330Z,103402.59
2024-01-08T06:11:38.735Z,103392.69
2024-01-08T06:14:09.143Z,103398.88
2024-01-08T06:16:40.045Z,103392.69
2024-01-08T06:19:12.187Z,103395.91
2024-01-08T06:21:45.563Z,103406.44
2024-01-08T06:24:13.826Z,103413.78
2024-01-08T06:26:42.188Z,103404.66
2024-01-08T06:29:12.675Z,103406.13
2024-01-08T06:35:42.943Z,103418.53
2024-01-08T06:38:13.099Z,103416.75
2024-01-08T06:40:41.415Z,103421.88
2024-01-08T06:43:09.643Z,103426.19
2024-01-08T06:45:37.765Z,103425.69
2024-01-08T06:48:06.627Z,103430.00
2024-01-08T06:50:34.991Z,103431.66
2024-01-08T06:53:05.552Z,103435.22
2024-01-08T06:55:35.342Z,103433.75
2024-01-08T06:58:03.471Z,103440.16
2024-01-08T07:00:31.579Z,103442.81
2024-01-08T07:02:59.877Z,103452.41
2024-01-08T07:05:28.173Z,103453.31
2024-01-08T07:07:57.469Z,103468.41
2024-01-08T07:10:25.697Z,103461.16
2024-01-08T07:12:55.138Z,103470.88
2024-01-08T07:15:40.032Z,103473.16
2024-01-08T07:18:10.136Z,103468.91
2024-01-08T07:20:39.501Z,103472.19
2024-01-08T07:23:09.800Z,103474.81
2024-01-08T07:25:38.461Z,103483.47
2024-01-08T07:28:09.675Z,103494.75
2024-01-08T07:30:38.314Z,103500.47
2024-01-08T07:33:06.942Z,103494.34
2024-01-08T07:35:35.355Z,103501.72
2024-01-08T07:38:03.432Z,103501.72
2024-01-08T07:40:31.724Z,103498.78
2024-01-08T07:43:00.041Z,103505.28
2024-01-08T07:45:29.689Z,103506.72
2024-01-08T07:47:59.011Z,103510.78
2024-01-08T07:50:27.456Z,103516.94
2024-01-08T07:52:55.532Z,103523.84
2024-01-08T07:55:23.752Z,103528.47
2024-01-08T07:57:51.767Z,103525.22
2024-01-08T08:00:23.394Z,103534.44
2024-01-08T08:02:53.394Z,103545.16
2024-01-08T08:05:21.577Z,103547.81
2024-01-08T08:07:51.082Z,103548.72
2024-01-08T08:10:22.037Z,103543.50
2024-01-08T08:12:53.191Z,103546.34
2024-01-08T08:15:21.691Z,103548.91
2024-01-08T08:17:51.386Z,103550.78
2024-01-08T08:20:23.191Z,103552.06
2024-01-08T08:22:52.668Z,103554.69
2024-01-08T08:25:21.214Z,103553.13
2024-01-08T08:27:49.538Z,103560.03
2024-01-08T08:30:20.668Z,103560.41
2024-01-08T08:32:49.238Z,103559.44
2024-01-08T08:35:17.804Z,103566.97
2024-01-08T08:37:53.383Z,103558.34
2024-01-08T08:40:23.333Z,103572.50
2024-01-08T08:42:52.003Z,103570.53
2024-01-08T08:45:20.408Z,103572.91
2024-01-08T08:47:49.217Z,103571.22
2024-01-08T08:50:17.767Z,103572.09
2024-01-08T08:52:47.713Z,103593.44
2024-01-08T08:55:16.299Z,103582.44
2024-01-08T08:57:44.783Z,103587.13
2024-01-08T09:00:15.861Z,103593.25
2024-01-08T09:02:46.868Z,103603.28
2024-01-08T09:05:19.699Z,103591.16
2024-01-08T09:07:54.946Z,103609.66
2024-01-08T09:10:23.025Z,103613.50
2024-01-08T09:12:51.460Z,103615.56
2024-01-08T09:15:19.864Z,103618.22
2024-01-08T09:17:49.377Z,103618.53
2024-01-08T09:20:17.648Z,103611.53
2024-01-08T09:22:45.816Z,103612.22
2024-01-08T09:25:15.269Z,103621.66
2024-01-08T09:27:43.686Z,103628.63
2024-01-08T09:30:12.322Z,103626.19
2024-01-08T09:32:40.438Z,103637.88
2024-01-08T09:35:10.570Z,103630.19
2024-01-08T09:37:39.762Z,103630.41
2024-01-08T09:40:08.937Z,103635.31
2024-01-08T09:42:40.366Z,103644.56
2024-01-08T09:45:12.793Z,103633.38
2024-01-08T09:47:43.095Z,103644.47
2024-01-08T09:50:12.812Z,103628.66
2024-01-08T09:52:42.779Z,103628.03
2024-01-08T09:59:12.694Z,103647.13
2024-01-08T10:01:44.136Z,103642.00
2024-01-08T10:04:12.346Z,103648.09
2024-01-08T10:06:40.730Z,103645.78
2024-01-08T10:09:09.977Z,103636.81
2024-01-08T10:11:39.677Z,103623.44
2024-01-08T10:14:08.694Z,103623.44
2024-01-08T10:16:50.476Z,103627.78
2024-01-08T10:19:26.256Z,103626.88
2024-01-08T10:22:08.851Z,103627.78
2024-01-08T10:24:37.325Z,103628.94
2024-01-08T10:27:05.540Z,103622.44
2024-01-08T10:29:34.010Z,103619.38
2024-01-08T10:32:03.460Z,103617.16
2024-01-08T10:34:32.513Z,103625.13
2024-01-08T10:37:00.716Z,103622.16
2024-01-08T10:39:43.029Z,103623.94
2024-01-08T10:42:16.249Z,103627.84
2024-01-08T10:44:44.474Z,103631.13
2024-01-08T10:47:18.673Z,103612.81
2024-01-08T10:49:52.339Z,103623.53
2024-01-08T10:52:26.176Z,103618.00
2024-01-08T10:54:57.025Z,103622.94
2024-01-08T10:57:30.519Z,103612.91
2024-01-08T10:59:59.030Z,103636.41
2024-01-08T11:02:29.340Z,103621.16
2024-01-08T11:05:00.529Z,103622.38
2024-01-08T11:07:29.314Z,103632.00
2024-01-08T11:10:04.511Z,103637.88
2024-01-08T11:12:32.635Z,103629.63
2024-01-08T11:15:03.529Z,103642.72
2024-01-08T11:17:33.387Z,103645.56
2024-01-08T11:20:07.226Z,103623.44
2024-01-08T11:22:35.415Z,103648.91
2024-01-08T11:25:04.629Z,103627.06
2024-01-08T11:27:33.541Z,103626.56
2024-01-08T11:30:05.500Z,103623.63
2024-01-08T11:33:01.942Z,103634.66
2024-01-08T11:35:31.226Z,103641.84
2024-01-08T11:38:13.209Z,103635.91
2024-01-08T11:40:44.753Z,103631.41
2024-01-08T11:43:13.450Z,103635.22
2024-01-08T11:45:41.512Z,103636.50
2024-01-08T11:48:11.225Z,103649.22
2024-01-08T11:50:42.823Z,103637.59
2024-01-08T11:53:12.256Z,103647.81
2024-01-08T11:55:41.829Z,103649.28
2024-01-08T11:58:10.052Z,103644.47
2024-01-08T12:00:38.073Z,103656.78
2024-01-08T12:03:07.022Z,103654.00
2024-01-08T12:05:39.713Z,103646.53
2024-01-08T12:08:08.271Z,103651.25
2024-01-08T12:10:36.511Z,103657.44
2024-01-08T12:13:05.015Z,103658.44
2024-01-08T12:15:33.752Z,103666.72
2024-01-08T12:18:02.307Z,103660.41
2024-01-08T12:20:30.786Z,103660.41
2024-01-08T12:23:00.473Z,103657.91
2024-01-08T12:25:28.668Z,103661.41
2024-01-08T12:28:01.418Z,103664.31
2024-01-08T12:30:30.881Z,103672.47
2024-01-08T12:32:59.442Z,103671.59
2024-01-08T12:35:28.021Z,103673.88
2024-01-08T12:37:57.018Z,103675.25
2024-01-08T12:40:26.484Z,103674.09
2024-01-08T12:42:54.536Z,103673.41
2024-01-08T12:45:22.773Z,103682.03
2024-01-08T12:47:51.085Z,103676.16
2024-01-08T12:50:19.629Z,103690.72
2024-01-08T12:52:47.862Z,103686.97
2024-01-08T12:55:15.927Z,103688.81
2024-01-08T12:57:45.338Z,103691.97
2024-01-08T13:00:15.304Z,103693.06
2024-01-08T13:02:43.656Z,103694.84
2024-01-08T13:05:14.892Z,103694.13
2024-01-08T13:07:43.833Z,103691.69
2024-01-08T13:10:12.267Z,103685.88
2024-01-08T13:12:41.449Z,103691.19
2024-01-08T13:15:11.520Z,103688.16
2024-01-08T13:17:39.677Z,103681.25
2024-01-08T13:20:21.921Z,103682.53
2024-01-08T13:22:56.177Z,103686.97
2024-01-08T13:25:25.209Z,103691.28
2024-01-08T13:27:53.447Z,103679.69
2024-01-08T13:30:23.471Z,103688.25
2024-01-08T13:32:51.713Z,103686.66
2024-01-08T13:35:19.822Z,103686.78
2024-01-08T13:37:49.211Z,103682.81
2024-01-08T13:40:21.111Z,103689.72
2024-01-08T13:42:51.336Z,103691.88
2024-01-08T13:45:19.781Z,103678.41
2024-01-08T13:47:50.651Z,103689.66
2024-01-08T13:50:20.303Z,103685.03
2024-01-08T13:52:48.775Z,103693.38
2024-01-08T13:55:16.821Z,103690.34
2024-01-08T13:57:45.661Z,103692.06
2024-01-08T14:00:15.025Z,103692.97
2024-01-08T14:02:43.563Z,103692.50
2024-01-08T14:05:13.501Z,103712.13
2024-01-08T14:07:42.048Z,103701.44
2024-01-08T14:10:11.716Z,103712.06
2024-01-08T14:12:39.838Z,103716.88
2024-01-08T14:15:09.173Z,103721.38
2024-01-08T14:17:39.465Z,103717.91
2024-01-08T14:20:10.081Z,103727.66
2024-01-08T14:22:39.803Z,103730.22
2024-01-08T14:25:09.183Z,103724.63
2024-01-08T14:27:37.905Z,103727.59
2024-01-08T14:30:07.390Z,103731.97
2024-01-08T14:32:35.930Z,103730.16
2024-01-08T14:35:05.180Z,103738.84
2024-01-08T14:37:33.290Z,103732.34
2024-01-08T14:40:02.803Z,103741.59
2024-01-08T14:42:30.920Z,103736.59
2024-01-08T14:44:59.940Z,103732.25
2024-01-08T14:47:28.475Z,103735.00
2024-01-08T14:49:56.637Z,103743.13
2024-01-08T14:52:25.850Z,103742.94
2024-01-08T14:54:54.062Z,103736.94
2024-01-08T14:57:23.632Z,103739.19
2024-01-08T14:59:51.820Z,103740.88
2024-01-08T15:02:20.024Z,103744.97
2024-01-08T15:04:48.088Z,103744.00
2024-01-08T15:07:16.399Z,103744.59
2024-01-08T15:09:46.736Z,103742.69
2024-01-08T15:12:15.158Z,103741.38
2024-01-08T15:14:44.644Z,103746.38
2024-01-08T15:17:12.777Z,103750.28
2024-01-08T15:19:42.197Z,103740.53
2024-01-08T15:22:10.330Z,103751.66
2024-01-08T15:24:39.465Z,103749.78
2024-01-08T15:27:07.576Z,103752.88
2024-01-08T15:29:35.792Z,103747.59
2024-01-08T15:32:05.524Z,103747.91
2024-01-08T15:34:33.708Z,103749.38
2024-01-08T15:37:01.927Z,103746.28
2024-01-08T15:39:30.070Z,103757.25
2024-01-08T15:41:58.285Z,103758.91
2024-01-08T15:44:26.417Z,103752.97
2024-01-08T15:46:55.397Z,103757.84
2024-01-08T15:49:24.975Z,103756.16
2024-01-08T15:51:53.923Z,103757.06
2024-01-08T15:54:23.816Z,103754.84
2024-01-08T15:56:52.217Z,103758.88
2024-01-08T15:59:21.337Z,103762.97
2024-01-08T16:01:49.537Z,103768.53
2024-01-08T16:04:18.041Z,103765.44
2024-01-08T16:06:50.232Z,103776.31
2024-01-08T16:09:18.935Z,103771.31
2024-01-08T16:11:49.452Z,103777.53
2024-01-08T16:14:17.748Z,103775.09
2024-01-08T16:16:45.865Z,103781.22
2024-01-08T16:19:14.123Z,103775.75
2024-01-08T16:21:42.245Z,103781.44
2024-01-08T16:24:14.151Z,103775.75
2024-01-08T16:26:43.416Z,103783.09
2024-01-08T16:29:11.764Z,103784.88
2024-01-08T16:31:41.203Z,103790.22
2024-01-08T16:34:09.355Z,103790.09
2024-01-08T16:36:37.636Z,103807.63
2024-01-08T16:39:06.186Z,103798.09
2024-01-08T16:41:35.912Z,103800.97
2024-01-08T16:44:04.658Z,103807.63
2024-01-08T16:46:33.403Z,103806.84
2024-01-08T16:49:02.454Z,103811.94
2024-01-08T16:51:30.835Z,103816.19
2024-01-08T16:54:01.309Z,103815.38
2024-01-08T16:56:32.351Z,103820.03
2024-01-08T16:59:02.074Z,103817.16
2024-01-08T17:01:34.557Z,103824.03
2024-01-08T17:04:04.215Z,103824.81
2024-01-08T17:06:33.394Z,103828.25
2024-01-08T17:09:03.832Z,103827.25
2024-01-08T17:11:32.185Z,103830.03
2024-01-08T17:14:01.841Z,103834.69
2024-01-08T17:16:30.241Z,103832.72
2024-01-08T17:18:58.441Z,103833.34
2024-01-08T17:21:26.848Z,103844.13
2024-01-08T17:23:56.232Z,103845.66
2024-01-08T17:26:24.514Z,103849.88
2024-01-08T17:28:56.177Z,103845.66
2024-01-08T17:31:26.073Z,103840.56
2024-01-08T17:33:56.708Z,103854.97
2024-01-08T17:36:26.410Z,103848.91
2024-01-08T17:38:54.991Z,103857.53
2024-01-08T17:41:24.851Z,103859.66
2024-01-08T17:43:53.434Z,103861.31
2024-01-08T17:46:21.543Z,103863.19
2024-01-08T17:48:54.276Z,103865.75
2024-01-08T17:51:22.669Z,103869.75
2024-01-08T17:53:50.844Z,103872.03
2024-01-08T17:56:19.033Z,103878.81
2024-01-08T17:58:48.170Z,103874.38
2024-01-08T18:01:19.099Z,103883.69
2024-01-08T18:03:48.028Z,103887.78
2024-01-08T18:06:18.191Z,103888.03
2024-01-08T18:08:46.907Z,103896.22
2024-01-08T18:11:16.019Z,103899.63
2024-01-08T18:13:47.439Z,103897.88
2024-01-08T18:16:16.272Z,103897.88
2024-01-08T18:18:44.440Z,103900.31
2024-01-08T18:21:24.451Z,103902.75
2024-01-08T18:23:52.814Z,103904.31
2024-01-08T18:26:21.247Z,103904.41
2024-01-08T18:28:49.663Z,103906.72
2024-01-08T18:31:17.900Z,103905.41
2024-01-08T18:33:47.209Z,103906.53
2024-01-08T18:36:16.008Z,103906.94
2024-01-08T18:38:45.543Z,103908.53
2024-01-08T18:41:13.609Z,103906.72
2024-01-08T18:43:41.672Z,103919.16
2024-01-08T18:46:10.438Z,103915.78
2024-01-08T18:48:38.726Z,103908.16
2024-01-08T18:51:06.883Z,103923.44
2024-01-08T18:53:35.222Z,103918.59
2024-01-08T18:56:05.172Z,103912.59
2024-01-08T18:58:33.265Z,103915.28
2024-01-08T19:01:01.825Z,103918.72
2024-01-08T19:03:30.170Z,103917.72
2024-01-08T19:05:59.987Z,103923.03
2024-01-08T19:08:30.296Z,103921.16
2024-01-08T19:10:58.409Z,103926.66
2024-01-08T19:13:28.647Z,103924.88
2024-01-08T19:15:56.811Z,103934.53
2024-01-08T19:18:25.663Z,103925.56
2024-01-08T19:20:54.175Z,103926.72
2024-01-08T19:23:23.297Z,103936.25
2024-01-08T19:25:53.123Z,103932.16
2024-01-08T19:28:21.544Z,103927.19
2024-01-08T19:30:50.993Z,103933.81
2024-01-08T19:33:19.486Z,103931.94
2024-01-08T19:35:48.106Z,103939.59
2024-01-08T19:38:16.396Z,103942.91
2024-01-08T19:40:44.763Z,103935.47
2024-01-08T19:43:12.942Z,103942.34
2024-01-08T19:45:41.026Z,103939.59
2024-01-08T19:48:10.868Z,103935.25
2024-01-08T19:50:39.206Z,103933.59
2024-01-08T19:53:07.292Z,103937.38
2024-01-08T19:55:37.846Z,103943.25
2024-01-08T19:58:06.412Z,103936.03
2024-01-08T20:00:34.909Z,103941.00
2024-01-08T20:03:03.294Z,103938.44
2024-01-08T20:05:33.054Z,103944.56
2024-01-08T20:08:01.606Z,103939.69
2024-01-08T20:10:29.736Z,103938.91
2024-01-08T20:13:03.453Z,103942.81
2024-01-08T20:15:31.781Z,103944.81
2024-01-08T20:18:00.037Z,103952.47
2024-01-08T20:20:28.284Z,103949.03
2024-01-08T20:22:57.732Z,103947.50
2024-01-08T20:25:25.991Z,103943.94
2024-01-08T20:27:54.083Z,103943.72
2024-01-08T20:30:22.907Z,103940.91
2024-01-08T20:32:52.251Z,103944.25
2024-01-08T20:35:20.429Z,103944.25
2024-01-08T20:37:48.815Z,103940.03
2024-01-08T20:40:18.362Z,103939.16
2024-01-08T20:42:46.635Z,103945.03
2024-01-08T20:45:14.804Z,103940.69
2024-01-08T20:47:45.882Z,103928.72
2024-01-08T20:50:14.615Z,103936.38
2024-01-08T20:52:42.724Z,103937.75
2024-01-08T20:55:11.204Z,103944.41
2024-01-08T20:57:40.687Z,103937.63
2024-01-08T21:00:10.624Z,103941.28
2024-01-08T21:02:42.084Z,103939.75
2024-01-08T21:05:12.733Z,103940.00
2024-01-08T21:07:42.202Z,103943.53
2024-01-08T21:10:11.236Z,103937.56
2024-01-08T21:12:40.709Z,103941.25
2024-01-08T21:15:10.311Z,103944.56
2024-01-08T21:17:38.529Z,103938.44
2024-01-08T21:20:09.319Z,103933.22
2024-01-08T21:22:37.364Z,103938.09
2024-01-08T21:26:18.983Z,103938.22
2024-01-08T21:28:48.510Z,103939.28
2024-01-08T21:31:17.080Z,103941.19
2024-01-08T21:33:45.404Z,103939.63
2024-01-08T21:36:14.765Z,103935.97
2024-01-08T21:38:43.211Z,103943.63
2024-01-08T21:41:11.637Z,103940.59
2024-01-08T21:43:39.841Z,103944.94
2024-01-08T21:46:09.296Z,103936.41
2024-01-08T21:48:37.695Z,103950.25
2024-01-08T21:54:59.024Z,103945.97
2024-01-08T21:57:27.150Z,103945.84
2024-01-08T21:59:55.256Z,103954.88
2024-01-08T22:02:24.763Z,103955.56
2024-01-08T22:04:53.048Z,103959.16
2024-01-08T22:07:21.132Z,103957.50
2024-01-08T22:09:49.171Z,103964.16
2024-01-08T22:12:17.227Z,103963.28
2024-01-08T22:14:45.319Z,103971.16
2024-01-08T22:17:13.470Z,103969.97
2024-01-08T22:19:43.249Z,103970.59
2024-01-08T22:22:11.297Z,103964.75
2024-01-08T22:24:41.133Z,103969.19
2024-01-08T22:27:09.296Z,103963.22
2024-01-08T22:29:37.383Z,103962.31
2024-01-08T22:32:06.002Z,103969.19
2024-01-08T22:34:34.178Z,103962.19
2024-01-08T22:37:03.637Z,103969.84
2024-01-08T22:39:31.618Z,103961.19
2024-01-08T22:41:59.704Z,103968.72
2024-01-08T22:44:27.797Z,103961.97
2024-01-08T22:46:55.918Z,103957.63
2024-01-08T22:49:23.957Z,103960.06
2024-01-08T22:51:55.215Z,103965.69
2024-01-08T22:54:24.845Z,103963.81
2024-01-08T23:00:49.796Z,103966.09
2024-01-08T23:03:17.972Z,103961.00
2024-01-08T23:05:46.088Z,103958.25
2024-01-08T23:08:14.299Z,103959.00
2024-01-08T23:10:43.814Z,103960.66
2024-01-08T23:13:11.881Z,103964.22
2024-01-08T23:15:39.868Z,103967.28
2024-01-08T23:18:08.273Z,103969.84
2024-01-08T23:20:36.875Z,103968.84
2024-01-08T23:23:05.235Z,103963.50
2024-01-08T23:25:33.313Z,103957.63
2024-01-08T23:28:02.718Z,103955.72
2024-01-08T23:30:30.754Z,103958.28
2024-01-08T23:32:58.864Z,103951.03
2024-01-08T23:43:24.983Z,103957.81
2024-01-08T23:45:53.048Z,103963.56
2024-01-08T23:48:21.158Z,103943.94
2024-01-08T23:50:49.283Z,103946.59
2024-01-08T23:53:17.454Z,103942.94
2024-01-08T23:55:45.470Z,103942.06
2024-01-08T23:58:13.540Z,103936.81
